• Join FlightAware (Why Join?)
  • Login
  • US Flag 
01:43AM EDT


 

Airport Tracker/Info


-or-


 

Live Flight TrackerFlight Track Log ✈ UAL4335 ✈ 23-Apr-2013 ✈ KEWR - KCVG

Flight Track Log - Related Links

Times and Time Zones

All times are in EDT time to prevent confusion due to time zone crossing. See the UAL4335 flight status page for this flight to view local times or setup timezone preferences in your user account.

Time Position Orientation Groundspeed Altitude Reporting Facility
EDT Latitude Longitude Course Direction KTS MPH feet Rate Location/Type
03:05PM 40.7500 -74.1333 258° West 212 244 2,900  Level New York TRACON
03:06PM 40.7667 -74.2167 285° West 270 311 5,600 2,700 Climbing New York TRACON
03:07PM 40.6834 -74.6654 270° West  Level FlightAware Approximate
03:07PM 40.7667 -74.3000 270° West 276 318 8,400  Level New York TRACON
03:08PM 40.6834 -74.7900 270° West  Level FlightAware Approximate
03:08PM 40.7500 -74.4167 259° West 288 331 10,300  Level New York TRACON
03:09PM 40.6833 -74.9147 270° West  Level FlightAware Approximate
03:10PM 40.6715 -75.0377 258° West  Level FlightAware Approximate
03:10PM 40.7294 -74.6433 263° West 344 396 12,700  Level New York Center
03:11PM 40.7142 -74.7847 262° West 355 409 14,500 1,620 Climbing New York Center
03:12PM 40.6917 -74.8983 255° West 355 409 16,100 1,560 Climbing New York Center
03:13PM 40.6481 -75.0078 242° Southwest 355 409 17,600 1,440 Climbing New York Center
03:14PM 40.5956 -75.1358 242° Southwest 355 409 19,000 1,260 Climbing New York Center
03:15PM 40.5539 -75.2425 243° Southwest 366 421 20,200 1,260 Climbing New York Center
03:16PM 40.5078 -75.3622 243° Southwest 366 421 21,600 1,320 Climbing New York Center
03:17PM 40.4572 -75.4817 241° Southwest 366 421 22,900 1,260 Climbing New York Center
03:18PM 40.4083 -75.6036 242° Southwest 366 421 24,200 1,380 Climbing New York Center
03:19PM 40.3528 -75.7386 242° Southwest 381 438 25,700 1,260 Climbing New York Center
03:20PM 40.3039 -75.8603 242° Southwest 381 438 26,800 1,020 Climbing New York Center
03:21PM 40.2483 -75.9842 240° Southwest 386 444 27,800 900 Climbing New York Center
03:22PM 40.1969 -76.1081 242° Southwest 386 444 28,700 840 Climbing New York Center
03:23PM 40.1594 -76.2031 243° Southwest 380 437 29,500 960 Climbing New York Center
03:24PM 40.0942 -76.3472 239° Southwest 392 451 30,600 1,080 Climbing New York Center
03:26PM 39.9844 -76.5878 239° Southwest 403 464 32,700 1,080 Climbing Washington Center
03:27PM 39.9250 -76.7117 238° Southwest 403 464 33,800 1,200 Climbing Washington Center
03:28PM 39.8592 -76.8456 237° Southwest 408 470 35,100 1,020 Climbing Washington Center
03:29PM 39.7994 -76.9717 238° Southwest 408 470 35,900 420 Climbing Washington Center
03:30PM 39.7417 -77.1000 240° Southwest 408 470 36,000  Climbing Washington Center
03:31PM 39.6775 -77.2333 238° Southwest 424 488 36,000  Level Washington Center
03:32PM 39.6153 -77.3694 239° Southwest 434 499 36,000  Level Washington Center
03:33PM 39.5506 -77.4997 237° Southwest 434 499 36,000  Level Washington Center
03:34PM 39.4881 -77.6353 239° Southwest 439 505 36,000  Level Washington Center
03:35PM 39.4253 -77.7625 237° Southwest 439 505 36,000  Level Washington Center
03:36PM 39.3667 -77.8950 240° Southwest 439 505 36,000  Level Washington Center
03:37PM 39.3206 -78.0142 243° Southwest 434 499 36,000  Level Washington Center
03:38PM 39.2656 -78.1464 242° Southwest 424 488 36,000  Level Washington Center
03:39PM 39.2147 -78.2811 244° Southwest 424 488 36,000  Level Washington Center
03:40PM 39.1617 -78.4158 243° Southwest 424 488 36,000  Level Washington Center
03:41PM 39.1064 -78.5500 242° Southwest 424 488 36,000  Level Washington Center
03:42PM 39.0572 -78.6817 244° Southwest 424 488 36,000  Level Washington Center
03:43PM 39.0347 -78.8197 258° West 406 467 36,000 -300 Level Washington Center
03:44PM 39.0122 -78.9550 258° West 393 452 35,500 -540 Descending Washington Center
03:45PM 38.9919 -79.0850 259° West 388 447 35,000 -300 Descending Washington Center
03:46PM 38.9692 -79.2200 258° West 388 447 35,000  Level Washington Center
03:47PM 38.9506 -79.3500 260° West 388 447 35,000 -480 Level Washington Center
03:48PM 38.9278 -79.4794 257° West 388 447 34,100 -600 Descending Washington Center
03:49PM 38.9086 -79.6119 260° West 381 438 33,800 -660 Descending Washington Center
03:50PM 38.8897 -79.7389 259° West 381 438 32,800 -900 Descending Washington Center
03:51PM 38.8728 -79.8714 261° West 376 433 32,000 -300 Descending Washington Center
03:53PM 38.8367 -80.1381 260° West 375 432 32,000  Level Indianapolis Center
03:54PM 38.8206 -80.2669 261° West 367 422 32,000  Level Indianapolis Center
03:55PM 38.8006 -80.4244 261° West 373 429 32,000  Level Indianapolis Center
03:56PM 38.7842 -80.5550 261° West 371 427 32,000  Level Indianapolis Center
03:57PM 38.7667 -80.6878 260° West 376 433 32,000 -420 Level Indianapolis Center
03:58PM 38.7483 -80.8225 260° West 382 440 31,200 -1,140 Descending Indianapolis Center
03:59PM 38.7314 -80.9578 261° West 385 443 29,700 -1,380 Descending Indianapolis Center
04:00PM 38.7114 -81.0983 260° West 396 456 28,400 -840 Descending Indianapolis Center
04:01PM 38.6925 -81.2369 260° West 396 456 28,000 -240 Descending Indianapolis Center
04:02PM 38.6694 -81.4031 260° West 393 452 28,000  Level Indianapolis Center
04:03PM 38.6503 -81.5392 260° West 398 458 28,000 -720 Level Indianapolis Center
04:04PM 38.6300 -81.6953 261° West 403 464 26,600 -1,560 Descending Indianapolis Center
04:05PM 38.6094 -81.8383 260° West 406 467 24,800 -1,260 Descending Indianapolis Center
04:06PM 38.5886 -81.9833 260° West 413 475 24,000 -420 Descending Indianapolis Center
04:07PM 38.5678 -82.1261 259° West 409 471 24,000  Level Indianapolis Center
04:09PM 38.5467 -82.2689 259° West 411 473 24,000 -480 Level Indianapolis Center
04:10PM 38.5264 -82.4117 260° West 409 471 23,100 -540 Descending Indianapolis Center
04:11PM 38.5108 -82.5597 262° West 401 461 23,000 -60 Descending Indianapolis Center
04:12PM 38.5247 -82.7283 276° West 408 470 23,000  Level Indianapolis Center
04:13PM 38.5364 -82.8725 276° West 409 471 23,000 -300 Level Indianapolis Center
04:14PM 38.5469 -83.0108 276° West 395 455 22,500 -1,020 Descending Indianapolis Center
04:15PM 38.5572 -83.1475 276° West 389 448 21,000 -1,740 Descending Indianapolis Center
04:16PM 38.5681 -83.2842 276° West 388 447 19,000 -2,100 Descending Indianapolis Center
04:17PM 38.5789 -83.4431 275° West 386 444 16,700 -2,160 Descending Indianapolis Center
04:18PM 38.5875 -83.5742 275° West 377 434 14,600 -2,040 Descending Indianapolis Center
04:19PM 38.5972 -83.6964 276° West 354 407 12,600 -1,560 Descending Indianapolis Center
04:21PM 38.6167 -83.9333 276° West 340 391 10,000 -840 Descending Cincinnati TRACON
04:22PM 38.6750 -84.0403 305° West 342 394 10,000  Level Indianapolis Center
04:23PM 38.7292 -84.1456 303° West 348 400 10,000  Level Indianapolis Center
04:24PM 38.7814 -84.2481 303° West 342 394 10,000  Level Indianapolis Center
04:25PM 38.8447 -84.3686 304° West 345 397 10,000  Level Indianapolis Center
04:26PM 38.9000 -84.4500 311° West 330 380 10,000 -840 Level Cincinnati TRACON
04:27PM 38.9500 -84.5333 308° West 281 323 8,500 -1,440 Descending Cincinnati TRACON
04:28PM 39.0333 -84.5333 360° North 296 341 7,000 -1,800 Descending Cincinnati TRACON
04:29PM 39.1167 -84.5333 360° North 276 318 4,800 -2,100 Descending Cincinnati TRACON
04:30PM 39.1667 -84.5833 322° Northwest 229 264 2,900 -1,920 Descending Cincinnati TRACON